Time;durP1;ratioP1;P1;durP2;ratioP2;P2;SDS_P1;SDS_P2;PMS_P1;PMS_P2;Temp;Humidity;BMP_temperature;BMP_pressure;BME280_temperature;BME280_humidity;BME280_pressure;Samples;Min_cycle;Max_cycle;Signal;HPM_P1;HPM_P2
2021/06/19 00:01:04;;;;;;;3.85;2.30;;;26.60;57.70;;;;;;5059599;28;20032;-80
2021/06/19 00:03:30;;;;;;;2.00;1.73;;;26.60;57.70;;;;;;5057598;28;20392;-80
2021/06/19 00:05:56;;;;;;;2.05;1.83;;;26.50;57.60;;;;;;5027302;28;20032;-79
2021/06/19 00:08:24;;;;;;;2.72;2.00;;;26.50;57.60;;;;;;5059026;28;20028;-80
2021/06/19 00:10:50;;;;;;;3.47;1.98;;;26.50;57.70;;;;;;5086936;28;20112;-80
2021/06/19 00:13:16;;;;;;;2.40;1.90;;;26.40;57.70;;;;;;5058770;28;20051;-80
2021/06/19 00:15:42;;;;;;;2.75;1.70;;;26.40;57.70;;;;;;5076673;28;20024;-80
2021/06/19 00:18:08;;;;;;;2.90;2.10;;;26.40;57.80;;;;;;5043000;28;20036;-80
2021/06/19 00:20:34;;;;;;;2.58;2.08;;;26.40;57.80;;;;;;5059062;28;20046;-80
2021/06/19 00:23:00;;;;;;;2.53;2.00;;;26.30;57.80;;;;;;5056500;28;20083;-81
2021/06/19 00:25:29;;;;;;;2.78;2.00;;;26.30;57.80;;;;;;5036555;28;20516;-80
2021/06/19 00:27:55;;;;;;;2.85;2.13;;;26.30;57.90;;;;;;5060242;28;20032;-81
2021/06/19 00:30:22;;;;;;;2.75;2.08;;;26.20;57.80;;;;;;5042652;28;20115;-82
2021/06/19 00:32:49;;;;;;;3.20;2.17;;;26.20;57.80;;;;;;5059293;28;20068;-81
2021/06/19 00:35:15;;;;;;;2.65;1.85;;;26.20;57.90;;;;;;5075959;28;20036;-81
2021/06/19 00:37:41;;;;;;;2.80;2.20;;;26.20;58.00;;;;;;5093354;28;20023;-80
2021/06/19 00:40:10;;;;;;;3.13;2.05;;;26.20;58.00;;;;;;5076598;28;20413;-81
2021/06/19 00:42:37;;;;;;;2.70;2.10;;;26.10;58.00;;;;;;5092729;28;20063;-81
2021/06/19 00:45:07;;;;;;;2.30;1.85;;;26.10;58.70;;;;;;5066395;28;20032;-80
2021/06/19 00:47:37;;;;;;;2.58;2.08;;;26.10;58.10;;;;;;5054669;28;20020;-80
2021/06/19 00:50:04;;;;;;;2.20;1.83;;;26.10;58.10;;;;;;5059296;28;20032;-80
2021/06/19 00:52:29;;;;;;;3.15;2.17;;;26.00;58.10;;;;;;5075722;28;20036;-80
2021/06/19 00:54:55;;;;;;;2.47;2.00;;;26.00;58.10;;;;;;5059046;28;20032;-81
2021/06/19 00:57:21;;;;;;;3.08;2.17;;;26.00;58.10;;;;;;5058459;28;20048;-81
2021/06/19 00:59:47;;;;;;;3.65;2.40;;;26.00;58.20;;;;;;5058648;28;20875;-81
2021/06/19 01:02:12;;;;;;;2.67;2.20;;;25.90;58.10;;;;;;5075608;28;20063;-80
2021/06/19 01:04:38;;;;;;;2.63;2.00;;;25.90;58.20;;;;;;5058035;28;20032;-80
2021/06/19 01:07:04;;;;;;;3.50;2.30;;;25.90;58.20;;;;;;5058781;28;20439;-81
2021/06/19 01:09:30;;;;;;;2.08;1.85;;;25.80;58.10;;;;;;5058520;28;20477;-80
2021/06/19 01:11:56;;;;;;;3.22;2.25;;;25.80;58.10;;;;;;5058695;28;20119;-81
2021/06/19 01:14:22;;;;;;;3.53;2.17;;;25.80;58.10;;;;;;5058900;28;20158;-81
2021/06/19 01:16:49;;;;;;;3.38;2.25;;;25.80;58.10;;;;;;5057825;28;20044;-81
2021/06/19 01:19:16;;;;;;;3.13;2.15;;;25.80;58.10;;;;;;5055485;28;20088;-81
2021/06/19 01:21:43;;;;;;;3.08;2.00;;;25.70;58.10;;;;;;5055584;28;20094;-81
2021/06/19 01:24:16;;;;;;;2.30;1.90;;;25.70;58.10;;;;;;5058788;28;20036;-80
2021/06/19 01:26:43;;;;;;;2.10;1.90;;;25.70;58.20;;;;;;5074356;28;20134;-80
2021/06/19 01:29:10;;;;;;;2.08;1.70;;;25.60;58.00;;;;;;5075534;28;20016;-81
2021/06/19 01:31:39;;;;;;;3.28;1.85;;;25.60;58.00;;;;;;5057964;28;20489;-81
2021/06/19 01:34:06;;;;;;;1.65;1.55;;;25.60;58.10;;;;;;5052422;28;20093;-80
2021/06/19 01:36:32;;;;;;;2.58;1.85;;;25.60;58.10;;;;;;5074721;28;20039;-80
2021/06/19 01:38:58;;;;;;;1.70;1.60;;;25.60;58.10;;;;;;5091453;28;20099;-80
2021/06/19 01:41:27;;;;;;;2.03;1.52;;;25.50;58.10;;;;;;5051453;28;20079;-80
2021/06/19 01:44:12;;;;;;;1.73;1.40;;;25.50;58.10;;;;;;5057987;28;20109;-81
2021/06/19 01:46:42;;;;;;;1.90;1.50;;;25.50;58.20;;;;;;5057566;28;20089;-81
2021/06/19 01:49:10;;;;;;;1.90;1.67;;;25.50;58.10;;;;;;5057380;28;20050;-80
2021/06/19 01:51:36;;;;;;;1.50;1.40;;;25.50;58.10;;;;;;5073657;28;20065;-80
2021/06/19 01:54:02;;;;;;;1.58;1.48;;;25.40;58.10;;;;;;5092704;28;20107;-81
2021/06/19 01:56:28;;;;;;;1.85;1.55;;;25.40;58.10;;;;;;5057371;28;20052;-80
2021/06/19 01:58:54;;;;;;;1.27;1.10;;;25.40;58.10;;;;;;5074309;28;20028;-81
2021/06/19 02:01:20;;;;;;;1.42;1.15;;;25.40;58.10;;;;;;5074079;28;20060;-80
2021/06/19 02:03:47;;;;;;;1.27;1.17;;;25.40;58.10;;;;;;5071313;28;20043;-80
2021/06/19 02:06:13;;;;;;;1.40;1.30;;;25.30;58.10;;;;;;5073904;28;20354;-80
2021/06/19 02:08:40;;;;;;;1.45;1.23;;;25.30;58.10;;;;;;5055035;28;20075;-80
2021/06/19 02:11:07;;;;;;;2.00;1.17;;;25.30;58.10;;;;;;5054556;28;20024;-80
2021/06/19 02:13:35;;;;;;;1.30;1.20;;;25.30;58.20;;;;;;5037969;28;20102;-79
2021/06/19 02:16:02;;;;;;;1.20;1.10;;;25.30;58.20;;;;;;5056792;28;20483;-80
2021/06/19 02:18:28;;;;;;;1.30;1.20;;;25.30;58.20;;;;;;5040948;28;20097;-80
2021/06/19 02:20:54;;;;;;;1.20;1.10;;;25.30;58.20;;;;;;5056161;28;20024;-80
2021/06/19 02:23:23;;;;;;;1.35;1.25;;;25.20;58.10;;;;;;5057236;28;20066;-80
2021/06/19 02:25:52;;;;;;;1.30;1.17;;;25.20;58.20;;;;;;5073637;28;20384;-80
2021/06/19 02:28:20;;;;;;;0.95;0.93;;;25.20;58.10;;;;;;5074210;28;20055;-80
2021/06/19 02:30:49;;;;;;;1.05;1.05;;;25.10;58.10;;;;;;5056629;28;20486;-80
2021/06/19 02:33:15;;;;;;;1.27;1.10;;;25.10;58.20;;;;;;5091908;28;20384;-80
2021/06/19 02:35:47;;;;;;;1.33;1.20;;;25.10;58.20;;;;;;5092010;28;20028;-79
2021/06/19 02:38:14;;;;;;;1.35;1.25;;;25.10;58.20;;;;;;5056725;28;20027;-80
2021/06/19 02:40:41;;;;;;;1.20;1.10;;;25.10;58.20;;;;;;5056398;28;20059;-79
2021/06/19 02:43:08;;;;;;;0.90;0.90;;;25.10;58.20;;;;;;5073863;28;20039;-80
2021/06/19 02:45:34;;;;;;;1.10;1.10;;;25.00;58.20;;;;;;5057099;28;20024;-80
2021/06/19 02:48:01;;;;;;;1.77;1.30;;;25.00;58.20;;;;;;5073393;28;20024;-80
2021/06/19 02:50:29;;;;;;;1.45;1.25;;;25.00;58.20;;;;;;5057331;28;20039;-80
2021/06/19 02:52:56;;;;;;;1.30;1.20;;;25.00;58.30;;;;;;5057472;28;20028;-79
2021/06/19 02:55:28;;;;;;;1.48;0.98;;;25.00;58.30;;;;;;5052045;28;20036;-80
2021/06/19 02:57:54;;;;;;;1.20;1.10;;;25.00;58.30;;;;;;5055495;28;20473;-80
2021/06/19 03:00:21;;;;;;;1.02;1.02;;;25.00;58.30;;;;;;5062141;28;20499;-80
2021/06/19 03:02:48;;;;;;;1.20;1.10;;;25.00;58.30;;;;;;5056386;28;20028;-80
2021/06/19 03:05:16;;;;;;;1.20;1.10;;;25.00;58.30;;;;;;5073570;28;20077;-80
2021/06/19 03:07:42;;;;;;;1.00;1.00;;;25.00;58.30;;;;;;5046847;28;20423;-80
2021/06/19 03:10:11;;;;;;;1.20;1.10;;;24.90;58.30;;;;;;5056679;28;20032;-79
2021/06/19 03:12:37;;;;;;;1.30;1.20;;;24.90;58.30;;;;;;5047324;28;20054;-79
2021/06/19 03:15:04;;;;;;;2.05;1.40;;;24.90;58.30;;;;;;5049599;28;20376;-80
2021/06/19 03:17:30;;;;;;;1.38;1.20;;;24.90;58.30;;;;;;5072728;28;20055;-79
2021/06/19 03:19:56;;;;;;;1.17;1.08;;;24.80;58.30;;;;;;5056805;28;20488;-80
2021/06/19 03:22:21;;;;;;;1.50;1.20;;;24.90;58.40;;;;;;5057327;28;20032;-81
2021/06/19 03:24:47;;;;;;;1.40;1.30;;;24.80;58.30;;;;;;5092352;28;20028;-80
2021/06/19 03:27:15;;;;;;;1.02;0.98;;;24.80;58.30;;;;;;5060494;28;20028;-80
2021/06/19 03:29:41;;;;;;;1.05;1.00;;;24.80;58.30;;;;;;5043875;28;20118;-79
2021/06/19 03:32:08;;;;;;;1.48;1.20;;;24.80;58.30;;;;;;5095502;28;20070;-80
2021/06/19 03:34:34;;;;;;;1.20;1.10;;;24.80;58.40;;;;;;5042892;28;20036;-79
2021/06/19 03:37:00;;;;;;;1.00;1.00;;;24.80;58.40;;;;;;5051099;28;20332;-80
2021/06/19 03:39:35;;;;;;;1.30;1.20;;;24.80;58.40;;;;;;5056365;28;20021;-80
2021/06/19 03:42:01;;;;;;;0.95;0.95;;;24.80;58.50;;;;;;5086365;28;20173;-79
2021/06/19 03:44:28;;;;;;;1.20;1.10;;;24.80;58.40;;;;;;5077260;28;20012;-80
2021/06/19 03:46:54;;;;;;;1.15;1.08;;;24.70;58.40;;;;;;5043340;28;20036;-80
2021/06/19 03:49:20;;;;;;;1.38;1.00;;;24.80;58.40;;;;;;5077044;28;20024;-80
2021/06/19 03:51:47;;;;;;;1.40;1.17;;;24.80;58.50;;;;;;5091916;28;20112;-79
2021/06/19 03:54:13;;;;;;;2.33;1.45;;;24.70;58.40;;;;;;5071099;28;20035;-79
2021/06/19 03:56:40;;;;;;;1.40;1.30;;;24.80;58.50;;;;;;5058185;28;20048;-80
2021/06/19 03:59:06;;;;;;;2.20;1.45;;;24.80;58.50;;;;;;5027507;28;20479;-79
2021/06/19 04:01:32;;;;;;;1.38;1.27;;;24.80;58.50;;;;;;5056406;28;20029;-79
2021/06/19 04:03:58;;;;;;;1.20;1.10;;;24.80;58.50;;;;;;5075980;28;20032;-79
2021/06/19 04:06:24;;;;;;;1.10;1.00;;;24.70;58.50;;;;;;5027151;28;20036;-79
2021/06/19 04:08:50;;;;;;;1.40;1.30;;;24.70;58.50;;;;;;5057584;28;20024;-79
2021/06/19 04:11:17;;;;;;;1.17;1.08;;;24.70;58.50;;;;;;5060016;28;20042;-80
2021/06/19 04:13:43;;;;;;;1.20;1.10;;;24.70;58.50;;;;;;5057821;28;20033;-80
2021/06/19 04:16:09;;;;;;;1.33;1.23;;;24.70;58.50;;;;;;5059856;28;20020;-80
2021/06/19 04:18:36;;;;;;;1.30;1.20;;;24.70;58.50;;;;;;5080546;28;20103;-79
2021/06/19 04:21:03;;;;;;;1.30;1.20;;;24.70;58.50;;;;;;5059179;28;20067;-79
2021/06/19 04:23:29;;;;;;;1.25;1.15;;;24.70;58.60;;;;;;5056271;28;20046;-79
2021/06/19 04:25:55;;;;;;;1.55;1.30;;;24.70;58.60;;;;;;5058211;28;20457;-80
2021/06/19 04:28:20;;;;;;;2.17;1.13;;;24.70;58.50;;;;;;5094187;28;20021;-79
2021/06/19 04:30:46;;;;;;;1.80;1.23;;;24.70;58.50;;;;;;5025761;28;20024;-79
2021/06/19 04:33:12;;;;;;;1.38;1.17;;;24.70;58.50;;;;;;5075959;28;20028;-79
2021/06/19 04:35:38;;;;;;;1.35;1.25;;;24.70;58.50;;;;;;5056888;28;20039;-79
2021/06/19 04:38:04;;;;;;;1.30;1.20;;;24.60;58.50;;;;;;5058539;28;20056;-78
2021/06/19 04:42:57;;;;;;;1.70;1.30;;;24.70;58.50;;;;;;5057147;28;20032;-81
2021/06/19 04:45:24;;;;;;;1.50;1.13;;;24.70;58.60;;;;;;5043491;28;20036;-81
2021/06/19 04:47:50;;;;;;;1.25;1.10;;;24.60;58.50;;;;;;5085091;28;20020;-81
2021/06/19 04:50:16;;;;;;;2.17;1.05;;;24.70;58.60;;;;;;5094284;28;20036;-87
2021/06/19 04:52:44;;;;;;;1.40;1.30;;;24.60;58.50;;;;;;5073177;28;20094;-86
2021/06/19 04:55:16;;;;;;;1.30;1.20;;;24.60;58.50;;;;;;5060194;28;20468;-86
2021/06/19 04:57:43;;;;;;;1.52;1.38;;;24.60;58.60;;;;;;5076565;28;20048;-85
2021/06/19 05:00:11;;;;;;;1.30;1.20;;;24.60;58.50;;;;;;5058095;28;20112;-84
2021/06/19 05:02:37;;;;;;;1.25;1.15;;;24.60;58.50;;;;;;5093860;28;20108;-86
2021/06/19 05:05:04;;;;;;;1.60;1.20;;;24.70;58.60;;;;;;5094167;28;20031;-83
2021/06/19 05:07:30;;;;;;;1.20;1.10;;;24.60;58.50;;;;;;5051704;28;20033;-85
2021/06/19 05:09:55;;;;;;;1.10;1.10;;;24.60;58.50;;;;;;5074492;28;20038;-86
2021/06/19 05:12:21;;;;;;;1.20;1.10;;;24.60;58.50;;;;;;5066681;28;20477;-87
2021/06/19 05:14:47;;;;;;;1.40;1.20;;;24.60;58.50;;;;;;5051365;28;20036;-86
2021/06/19 05:17:13;;;;;;;1.15;1.05;;;24.60;58.50;;;;;;5056739;28;20035;-87
2021/06/19 05:19:38;;;;;;;1.40;1.30;;;24.60;58.50;;;;;;5075696;28;20384;-86
2021/06/19 05:22:04;;;;;;;1.23;1.13;;;24.60;58.50;;;;;;5053694;28;20500;-85
2021/06/19 05:24:30;;;;;;;1.45;1.27;;;24.60;58.50;;;;;;5039162;28;20089;-86
2021/06/19 05:26:56;;;;;;;1.10;1.10;;;24.70;58.60;;;;;;5059192;28;20047;-84
2021/06/19 05:29:22;;;;;;;1.30;1.20;;;24.70;58.60;;;;;;5039503;28;20054;-84
2021/06/19 05:31:48;;;;;;;1.33;1.17;;;24.70;58.60;;;;;;5025920;28;20066;-87
2021/06/19 05:34:13;;;;;;;1.23;1.13;;;24.70;58.60;;;;;;5058369;28;20100;-86
2021/06/19 05:36:39;;;;;;;1.60;1.30;;;24.70;58.70;;;;;;5043018;28;20028;-93
2021/06/19 05:39:05;;;;;;;1.35;1.25;;;24.70;58.70;;;;;;5060130;28;20119;-93
2021/06/19 05:41:31;;;;;;;1.30;1.20;;;24.70;58.70;;;;;;5070487;28;20025;-93
2021/06/19 05:43:57;;;;;;;2.63;1.25;;;24.70;58.70;;;;;;5049340;28;20474;-91
2021/06/19 05:46:24;;;;;;;1.50;1.33;;;24.70;58.70;;;;;;5060406;28;20023;-91
2021/06/19 05:48:55;;;;;;;1.50;1.40;;;24.70;58.70;;;;;;5065468;28;20031;-89
2021/06/19 05:51:21;;;;;;;1.30;1.20;;;24.70;58.80;;;;;;5057646;28;20085;-91
2021/06/19 05:53:47;;;;;;;1.48;1.27;;;24.70;58.80;;;;;;5023282;28;20029;-90
2021/06/19 05:56:13;;;;;;;2.78;1.38;;;24.70;58.80;;;;;;5042739;28;20048;-90
2021/06/19 05:58:38;;;;;;;1.55;1.27;;;24.70;58.80;;;;;;5037815;28;20029;-88
2021/06/19 06:01:04;;;;;;;1.80;1.48;;;24.70;58.80;;;;;;5040197;28;20033;-90
2021/06/19 06:03:30;;;;;;;1.60;1.40;;;24.70;58.80;;;;;;5073387;28;20028;-90
2021/06/19 06:05:56;;;;;;;1.48;1.38;;;24.70;58.90;;;;;;5072297;28;20062;-89
2021/06/19 06:08:21;;;;;;;1.55;1.30;;;24.80;58.90;;;;;;5076506;28;20028;-89
2021/06/19 06:10:47;;;;;;;1.63;1.50;;;24.70;58.90;;;;;;5054975;28;20028;-92
2021/06/19 06:13:13;;;;;;;1.50;1.23;;;24.80;58.90;;;;;;5042712;28;20036;-94
2021/06/19 06:15:39;;;;;;;2.55;1.73;;;24.80;58.90;;;;;;5058342;28;20032;-91
2021/06/19 06:18:05;;;;;;;2.00;1.55;;;24.80;58.90;;;;;;5051078;28;20445;-90
2021/06/19 06:20:30;;;;;;;1.67;1.55;;;24.80;58.90;;;;;;5070655;28;20028;-91
2021/06/19 06:22:56;;;;;;;2.63;1.70;;;24.80;59.10;;;;;;5034510;28;20028;-90
2021/06/19 06:25:22;;;;;;;1.88;1.67;;;24.80;59.00;;;;;;5075963;28;20028;-90
2021/06/19 06:27:48;;;;;;;2.15;1.95;;;24.80;59.00;;;;;;5061911;28;20032;-90
2021/06/19 06:30:14;;;;;;;2.33;1.75;;;24.80;59.00;;;;;;5075727;28;20057;-92
2021/06/19 06:32:40;;;;;;;2.08;1.60;;;24.80;59.00;;;;;;5047334;28;20024;-92
2021/06/19 06:35:09;;;;;;;1.90;1.65;;;24.80;59.00;;;;;;5026226;28;20139;-91
2021/06/19 06:37:36;;;;;;;3.17;2.17;;;24.80;59.00;;;;;;5075736;28;20815;-92
2021/06/19 06:40:03;;;;;;;3.05;2.40;;;24.80;59.00;;;;;;5057505;28;20449;-92
2021/06/19 06:42:28;;;;;;;3.35;2.65;;;24.90;59.10;;;;;;5056271;28;20063;-93
2021/06/19 06:44:54;;;;;;;3.20;2.35;;;24.90;59.10;;;;;;5026497;28;20052;-92
2021/06/19 06:47:20;;;;;;;3.75;2.63;;;24.80;59.00;;;;;;5042590;28;20024;-93
2021/06/19 06:49:46;;;;;;;3.60;2.80;;;24.90;59.10;;;;;;5042885;28;20036;-92
2021/06/19 06:52:12;;;;;;;3.65;2.60;;;24.90;59.10;;;;;;5055327;28;20119;-90
2021/06/19 06:54:40;;;;;;;3.70;2.80;;;24.90;59.10;;;;;;5061123;28;20035;-90
2021/06/19 06:57:07;;;;;;;4.22;3.20;;;25.00;59.10;;;;;;5059136;28;20059;-90
2021/06/19 06:59:33;;;;;;;3.92;2.83;;;25.00;59.10;;;;;;5029462;28;20033;-90
2021/06/19 07:04:39;;;;;;;4.40;3.15;;;25.00;59.20;;;;;;5098034;27;20145;-90
2021/06/19 07:07:04;;;;;;;4.60;3.50;;;25.00;59.10;;;;;;5075346;28;20477;-89
2021/06/19 07:09:36;;;;;;;5.00;3.67;;;25.00;59.70;;;;;;5110591;28;20042;-86
2021/06/19 07:12:03;;;;;;;5.32;3.65;;;25.00;59.10;;;;;;5073022;28;20035;-90
2021/06/19 07:14:29;;;;;;;4.63;3.38;;;25.00;59.10;;;;;;5035176;28;20118;-92
2021/06/19 07:16:55;;;;;;;6.05;4.00;;;25.00;59.00;;;;;;5060570;28;20128;-91
2021/06/19 07:19:20;;;;;;;5.28;3.60;;;25.10;59.10;;;;;;5058930;28;20032;-91
2021/06/19 07:21:46;;;;;;;5.38;3.45;;;25.10;59.10;;;;;;5058760;28;20048;-91
2021/06/19 07:24:12;;;;;;;5.03;3.40;;;25.10;59.00;;;;;;5080209;28;20385;-90
2021/06/19 07:26:38;;;;;;;4.97;3.83;;;25.10;59.00;;;;;;5071323;28;20464;-90
2021/06/19 07:29:04;;;;;;;5.00;3.67;;;25.20;59.10;;;;;;5063863;28;20056;-92
2021/06/19 07:31:30;;;;;;;4.18;3.15;;;25.20;59.00;;;;;;5050867;28;20468;-91
2021/06/19 07:33:55;;;;;;;5.32;3.72;;;25.30;59.10;;;;;;5072524;28;20063;-92
2021/06/19 07:36:21;;;;;;;4.80;3.72;;;25.30;59.00;;;;;;5059065;28;20016;-91
2021/06/19 07:38:47;;;;;;;5.35;3.65;;;25.30;59.00;;;;;;5092244;28;20031;-91
2021/06/19 07:41:13;;;;;;;5.28;3.58;;;25.30;58.90;;;;;;5070489;28;20020;-91
2021/06/19 07:43:39;;;;;;;4.85;3.85;;;25.40;59.00;;;;;;5071645;28;20400;-89
2021/06/19 07:46:05;;;;;;;4.90;3.45;;;25.40;58.90;;;;;;5097208;28;20027;-85
2021/06/19 07:48:31;;;;;;;5.18;3.53;;;25.40;58.90;;;;;;5051778;28;20468;-85
2021/06/19 07:50:57;;;;;;;5.30;3.85;;;25.50;58.90;;;;;;5071185;28;20104;-93
2021/06/19 07:53:23;;;;;;;6.20;4.85;;;25.50;58.80;;;;;;5101688;28;20494;-96
2021/06/19 07:58:58;;;;;;;6.18;4.60;;;25.60;58.60;;;;;;5090147;28;20047;-85
2021/06/19 08:01:24;;;;;;;7.65;5.50;;;25.60;58.40;;;;;;5081405;28;20024;-88
2021/06/19 08:03:49;;;;;;;6.28;5.13;;;25.60;58.30;;;;;;5074555;28;20105;-89
2021/06/19 08:06:16;;;;;;;7.70;5.28;;;25.60;58.10;;;;;;5055895;28;20025;-87
2021/06/19 08:08:42;;;;;;;7.90;5.75;;;25.70;58.10;;;;;;5051763;28;20040;-87
2021/06/19 08:11:07;;;;;;;7.28;5.20;;;25.70;58.10;;;;;;5059195;28;20038;-89
2021/06/19 08:13:33;;;;;;;7.90;5.50;;;25.70;58.10;;;;;;5062064;28;20357;-90
2021/06/19 08:16:00;;;;;;;7.57;6.07;;;25.70;58.00;;;;;;5060078;28;20028;-86
2021/06/19 08:18:26;;;;;;;8.23;6.47;;;25.70;58.70;;;;;;5056593;28;20017;-88
2021/06/19 08:20:52;;;;;;;8.32;6.45;;;25.80;58.10;;;;;;5042251;28;20016;-83
2021/06/19 08:23:17;;;;;;;8.57;6.15;;;25.80;58.10;;;;;;5050225;28;20566;-86
2021/06/19 08:25:43;;;;;;;8.82;6.57;;;25.80;58.10;;;;;;5059393;28;20039;-87
2021/06/19 08:28:09;;;;;;;8.65;6.50;;;25.90;58.20;;;;;;5061442;28;20111;-84
2021/06/19 08:30:35;;;;;;;10.00;6.53;;;25.90;58.10;;;;;;5077409;28;20028;-89
2021/06/19 08:33:00;;;;;;;8.57;6.30;;;25.90;58.70;;;;;;5038716;28;20025;-89
2021/06/19 08:35:26;;;;;;;7.65;6.20;;;25.90;57.90;;;;;;5049563;28;20350;-89
2021/06/19 08:37:52;;;;;;;8.40;6.70;;;26.00;58.00;;;;;;5064021;28;20089;-90
2021/06/19 08:40:18;;;;;;;8.63;6.90;;;26.00;58.00;;;;;;5045370;28;20028;-88
2021/06/19 08:42:43;;;;;;;10.02;7.70;;;26.10;58.10;;;;;;5048214;28;20024;-90
2021/06/19 08:45:10;;;;;;;10.23;7.93;;;26.10;58.00;;;;;;5052950;28;20043;-93
2021/06/19 08:47:36;;;;;;;9.32;7.60;;;26.10;58.00;;;;;;5052712;28;20020;-84
2021/06/19 08:50:12;;;;;;;9.95;7.68;;;26.10;58.00;;;;;;5050947;28;20032;-87
2021/06/19 08:52:39;;;;;;;9.95;7.53;;;26.20;58.00;;;;;;5061225;28;20084;-86
2021/06/19 08:55:10;;;;;;;8.50;6.70;;;26.20;57.90;;;;;;5065642;28;20031;-87
2021/06/19 08:57:37;;;;;;;9.45;7.57;;;26.20;57.80;;;;;;5057659;28;20033;-87
2021/06/19 09:00:06;;;;;;;9.07;7.25;;;26.20;57.80;;;;;;5040901;28;20132;-86
2021/06/19 09:02:32;;;;;;;8.80;6.95;;;26.30;57.80;;;;;;5074835;28;20099;-91
2021/06/19 09:05:07;;;;;;;8.35;6.40;;;26.40;57.70;;;;;;5067378;28;20055;-91
2021/06/19 09:07:33;;;;;;;8.57;5.60;;;26.40;57.70;;;;;;5076073;28;20097;-92
2021/06/19 09:10:25;;;;;;;7.85;6.22;;;26.50;57.60;;;;;;5060962;28;20537;-91
2021/06/19 09:13:09;;;;;;;7.35;5.43;;;26.50;57.70;;;;;;5068378;28;20059;-93
2021/06/19 09:15:42;;;;;;;9.20;5.50;;;26.50;57.60;;;;;;5092563;28;20028;-93
2021/06/19 09:18:32;;;;;;;8.27;5.57;;;26.60;57.50;;;;;;5084762;28;20114;-93
2021/06/19 09:21:01;;;;;;;5.88;4.80;;;26.60;57.50;;;;;;5057834;28;20035;-91
2021/06/19 09:23:35;;;;;;;5.65;4.57;;;26.70;57.40;;;;;;5041370;28;20143;-92
2021/06/19 09:26:26;;;;;;;5.35;4.40;;;26.70;57.40;;;;;;5076261;28;20024;-92
2021/06/19 09:29:01;;;;;;;6.63;4.78;;;26.70;57.40;;;;;;5062606;28;20035;-95
2021/06/19 09:31:51;;;;;;;6.28;4.72;;;26.80;57.30;;;;;;5083631;28;20024;-92
2021/06/19 09:34:21;;;;;;;6.35;4.57;;;26.80;57.30;;;;;;5090628;28;20229;-92
2021/06/19 09:36:51;;;;;;;5.93;3.97;;;26.80;57.20;;;;;;5047116;28;20031;-92
2021/06/19 09:39:28;;;;;;;5.82;4.30;;;26.90;57.20;;;;;;5074192;28;20028;-91
2021/06/19 09:41:57;;;;;;;4.93;3.67;;;26.90;57.20;;;;;;5067756;28;20020;-93
2021/06/19 09:44:38;;;;;;;5.32;4.22;;;26.90;57.10;;;;;;5072014;28;20149;-86
2021/06/19 09:47:04;;;;;;;6.72;3.97;;;27.00;57.30;;;;;;5063016;28;20488;-83
2021/06/19 09:49:33;;;;;;;4.97;3.78;;;27.00;57.10;;;;;;5055959;28;20025;-89
2021/06/19 09:51:59;;;;;;;5.72;4.18;;;27.00;57.10;;;;;;5066719;28;20061;-89
2021/06/19 09:54:25;;;;;;;6.50;4.07;;;27.10;57.10;;;;;;5046308;28;20091;-89
2021/06/19 09:56:54;;;;;;;6.07;4.40;;;27.10;57.00;;;;;;5077312;28;20066;-88
2021/06/19 09:59:23;;;;;;;5.18;4.18;;;27.20;57.00;;;;;;5076481;28;20012;-88
2021/06/19 10:01:49;;;;;;;5.07;3.70;;;27.20;56.90;;;;;;5056755;28;20036;-88
2021/06/19 10:04:19;;;;;;;5.30;3.83;;;27.30;56.90;;;;;;5051976;28;20516;-87
2021/06/19 10:06:46;;;;;;;6.15;4.10;;;27.30;56.80;;;;;;5058249;28;20111;-88
2021/06/19 10:09:14;;;;;;;5.43;3.97;;;27.30;56.70;;;;;;5068565;28;20108;-88
2021/06/19 10:11:41;;;;;;;6.38;4.32;;;27.40;56.70;;;;;;5040160;28;20028;-90
2021/06/19 10:14:17;;;;;;;6.20;4.30;;;27.40;56.60;;;;;;5060603;28;20464;-89
2021/06/19 10:17:04;;;;;;;6.05;4.20;;;27.40;56.50;;;;;;5063966;28;20531;-88
2021/06/19 10:19:30;;;;;;;5.00;3.45;;;27.50;56.50;;;;;;5073669;28;20032;-88
2021/06/19 10:21:56;;;;;;;5.30;3.83;;;27.50;56.40;;;;;;5050941;28;20056;-88
2021/06/19 10:24:24;;;;;;;5.65;4.40;;;27.60;56.40;;;;;;5059278;28;20035;-89
2021/06/19 10:26:52;;;;;;;5.10;3.70;;;27.70;56.40;;;;;;5088449;28;20086;-88
2021/06/19 10:29:23;;;;;;;4.68;3.88;;;27.70;56.30;;;;;;5058252;28;20035;-88
2021/06/19 10:31:50;;;;;;;4.88;3.67;;;27.70;56.20;;;;;;5060737;28;20035;-88
2021/06/19 10:34:30;;;;;;;4.72;3.63;;;27.80;56.10;;;;;;5055748;28;20037;-87
2021/06/19 10:36:57;;;;;;;5.40;3.85;;;27.80;56.10;;;;;;5059701;28;20043;-87
2021/06/19 10:39:49;;;;;;;5.22;3.65;;;27.90;56.00;;;;;;5058772;28;20083;-86
2021/06/19 10:42:33;;;;;;;4.72;3.40;;;28.00;56.10;;;;;;5053333;28;20071;-86
2021/06/19 10:45:02;;;;;;;4.90;3.35;;;28.00;55.90;;;;;;5056336;28;20036;-87
2021/06/19 10:47:53;;;;;;;4.35;3.35;;;28.10;55.90;;;;;;5039268;28;20025;-85
2021/06/19 10:50:23;;;;;;;4.43;3.60;;;28.10;55.80;;;;;;5084109;28;20536;-83
2021/06/19 10:53:04;;;;;;;4.75;3.58;;;28.20;55.90;;;;;;5062600;28;20036;-84
2021/06/19 10:55:30;;;;;;;4.72;3.33;;;28.30;55.80;;;;;;5064219;28;20033;-86
2021/06/19 10:57:59;;;;;;;4.35;3.25;;;28.30;55.60;;;;;;5087415;28;20099;-85
2021/06/19 11:00:25;;;;;;;3.63;2.88;;;28.40;55.60;;;;;;5064294;28;20021;-85
2021/06/19 11:02:53;;;;;;;4.03;3.10;;;28.40;55.50;;;;;;5057073;28;20056;-86
2021/06/19 11:05:41;;;;;;;4.70;3.45;;;28.50;55.50;;;;;;5052242;28;20116;-85
2021/06/19 11:08:11;;;;;;;4.88;3.50;;;28.50;55.50;;;;;;5057645;28;20469;-86
2021/06/19 11:10:58;;;;;;;5.07;3.50;;;28.60;55.40;;;;;;5063349;28;20087;-84
2021/06/19 11:16:00;;;;;;;4.35;3.15;;;28.70;55.30;;;;;;5060912;28;20104;-84
2021/06/19 11:18:45;;;;;;;4.80;3.83;;;28.70;55.30;;;;;;5051769;28;20484;-84
2021/06/19 11:21:12;;;;;;;4.82;3.63;;;28.80;55.40;;;;;;5052971;28;20032;-84
2021/06/19 11:24:03;;;;;;;4.70;3.70;;;28.80;55.20;;;;;;5052022;28;20101;-84
2021/06/19 11:26:56;;;;;;;4.18;3.45;;;28.80;55.30;;;;;;5057000;28;20032;-85
2021/06/19 11:29:42;;;;;;;4.25;3.47;;;28.90;55.30;;;;;;5071597;28;20024;-83
2021/06/19 11:32:34;;;;;;;4.53;3.50;;;28.90;55.30;;;;;;5058118;28;20549;-84
2021/06/19 11:35:19;;;;;;;4.15;3.45;;;28.90;55.30;;;;;;5052775;28;20458;-82
2021/06/19 11:37:52;;;;;;;4.82;3.50;;;28.90;55.10;;;;;;5069960;28;20033;-86
2021/06/19 11:40:28;;;;;;;4.57;3.65;;;28.90;55.20;;;;;;5044156;28;20029;-88
2021/06/19 11:42:54;;;;;;;5.15;3.72;;;28.90;55.10;;;;;;5059194;28;20124;-82
2021/06/19 11:45:20;;;;;;;4.85;3.90;;;28.90;55.10;;;;;;5059261;28;20053;-79
2021/06/19 11:47:47;;;;;;;4.43;3.70;;;29.00;55.10;;;;;;5047788;28;20530;-83
2021/06/19 11:50:14;;;;;;;4.57;3.97;;;29.00;55.00;;;;;;5052607;28;20048;-86
2021/06/19 11:52:39;;;;;;;4.80;4.20;;;29.00;55.00;;;;;;5055966;28;20044;-84
2021/06/19 11:55:05;;;;;;;4.63;3.90;;;29.00;55.00;;;;;;5053895;28;20032;-88
2021/06/19 11:57:31;;;;;;;5.35;4.57;;;29.00;55.00;;;;;;5050357;28;20393;-84
2021/06/19 12:00:04;;;;;;;6.50;5.40;;;29.00;54.90;;;;;;5060294;28;20021;-87
2021/06/19 12:02:37;;;;;;;8.27;7.47;;;29.10;54.80;;;;;;5066087;28;20063;-85
2021/06/19 12:05:11;;;;;;;8.57;7.70;;;29.10;54.40;;;;;;5072623;28;20024;-84
2021/06/19 12:07:37;;;;;;;8.45;7.65;;;29.00;54.10;;;;;;5061068;28;20032;-83
2021/06/19 12:10:32;;;;;;;8.63;7.80;;;29.00;53.90;;;;;;5093931;28;20028;-85
2021/06/19 12:13:01;;;;;;;9.20;7.55;;;28.90;53.90;;;;;;5073720;28;20028;-83
2021/06/19 12:15:30;;;;;;;8.85;7.95;;;28.80;53.60;;;;;;5080853;28;20544;-85
2021/06/19 12:18:11;;;;;;;;;;;;;;;;;;;;;
2021/06/19 12:21:20;;;;;;;;;;;;;;;;;;;;;
2021/06/19 12:25:11;;;;;;;;;;;;;;;;;;;;;
2021/06/19 12:28:40;;;;;;;7.50;6.78;;;28.60;53.50;;;;;;5078425;28;20123;-85
2021/06/19 12:31:06;;;;;;;7.53;6.78;;;28.60;53.50;;;;;;5059129;28;20060;-86
2021/06/19 12:33:33;;;;;;;8.02;7.22;;;28.60;53.40;;;;;;5067208;28;20055;-85
2021/06/19 12:36:00;;;;;;;8.20;7.40;;;28.50;53.30;;;;;;5075913;28;20024;-85
2021/06/19 12:38:28;;;;;;;7.97;7.18;;;28.50;53.30;;;;;;5068088;28;20094;-85
2021/06/19 12:40:58;;;;;;;9.48;8.27;;;28.50;53.40;;;;;;5053016;28;20058;-84
2021/06/19 12:43:25;;;;;;;9.48;8.57;;;28.40;53.30;;;;;;5057484;28;20028;-88
2021/06/19 12:45:52;;;;;;;8.77;7.90;;;28.40;53.30;;;;;;5055561;28;20051;-84
2021/06/19 12:48:37;;;;;;;8.98;8.10;;;28.40;53.30;;;;;;5061236;28;20032;-85
2021/06/19 12:51:04;;;;;;;9.32;8.43;;;28.40;53.30;;;;;;5082679;28;20369;-85
2021/06/19 12:53:35;;;;;;;8.75;7.85;;;28.40;53.30;;;;;;5060507;28;20034;-86
2021/06/19 12:56:07;;;;;;;9.00;8.20;;;28.30;53.30;;;;;;5077487;28;20095;-84
2021/06/19 12:58:44;;;;;;;8.68;7.85;;;28.30;53.30;;;;;;5060386;28;20077;-83
2021/06/19 13:01:27;;;;;;;8.57;7.68;;;28.30;53.30;;;;;;5046824;28;20037;-85
2021/06/19 13:03:58;;;;;;;9.50;8.55;;;28.30;53.30;;;;;;5060597;28;20055;-88
2021/06/19 13:06:45;;;;;;;8.05;7.25;;;28.30;53.20;;;;;;5068763;28;20483;-86
2021/06/19 13:09:15;;;;;;;7.82;7.13;;;28.30;53.20;;;;;;5057760;28;20088;-85
2021/06/19 13:11:43;;;;;;;8.93;8.02;;;28.30;53.10;;;;;;5056939;28;20265;-86